createdAt,value
2019-04-28T00:01:51.314Z,3.57
2019-04-28T00:04:21.419Z,2.67
2019-04-28T00:06:51.558Z,2.77
2019-04-28T00:09:21.279Z,3.10
2019-04-28T00:11:51.720Z,2.70
2019-04-28T00:14:21.968Z,2.77
2019-04-28T00:16:51.158Z,2.50
2019-04-28T00:19:20.931Z,3.10
2019-04-28T00:21:51.699Z,2.67
2019-04-28T00:24:24.334Z,3.00
2019-04-28T00:26:54.553Z,3.10
2019-04-28T00:29:23.089Z,2.60
2019-04-28T00:31:51.641Z,2.93
2019-04-28T00:34:21.250Z,3.10
2019-04-28T00:36:51.756Z,2.83
2019-04-28T00:39:22.508Z,3.27
2019-04-28T00:41:51.615Z,2.70
2019-04-28T00:44:21.808Z,2.70
2019-04-28T00:46:51.167Z,2.50
2019-04-28T00:49:23.279Z,3.33
2019-04-28T00:51:51.963Z,2.90
2019-04-28T00:54:21.810Z,2.60
2019-04-28T00:56:51.707Z,2.53
2019-04-28T00:59:21.675Z,2.63
2019-04-28T01:01:54.894Z,2.50
2019-04-28T01:04:23.370Z,2.80
2019-04-28T01:06:52.174Z,2.87
2019-04-28T01:09:21.805Z,2.93
2019-04-28T01:11:51.139Z,2.53
2019-04-28T01:14:21.362Z,2.90
2019-04-28T01:16:51.723Z,2.87
2019-04-28T01:19:37.028Z,3.07
2019-04-28T01:22:07.268Z,2.83
2019-04-28T01:24:35.828Z,2.53
2019-04-28T01:27:06.205Z,3.03
2019-04-28T01:29:34.839Z,2.53
2019-04-28T01:32:20.326Z,2.63
2019-04-28T01:34:49.851Z,2.83
2019-04-28T01:37:19.608Z,2.53
2019-04-28T01:39:49.638Z,2.60
2019-04-28T01:42:18.154Z,3.17
2019-04-28T01:44:47.015Z,2.53
2019-04-28T01:47:15.732Z,3.00
2019-04-28T01:49:44.230Z,2.97
2019-04-28T01:52:12.765Z,2.93
2019-04-28T01:54:41.261Z,2.80
2019-04-28T01:57:10.204Z,2.83
2019-04-28T01:59:40.280Z,2.60
2019-04-28T02:02:10.208Z,2.77
2019-04-28T02:04:40.170Z,3.20
2019-04-28T02:07:10.852Z,2.63
2019-04-28T02:09:39.643Z,2.50
2019-04-28T02:12:08.173Z,2.53
2019-04-28T02:14:36.665Z,2.60
2019-04-28T02:17:05.361Z,3.33
2019-04-28T02:19:33.862Z,2.87
2019-04-28T02:22:06.762Z,2.47
2019-04-28T02:24:36.910Z,3.10
2019-04-28T02:27:05.675Z,3.17
2019-04-28T02:29:34.307Z,2.63
2019-04-28T02:32:03.577Z,2.63
2019-04-28T02:34:32.158Z,2.47
2019-04-28T02:37:01.763Z,2.87
2019-04-28T02:39:31.545Z,2.77
2019-04-28T02:42:01.502Z,3.47
2019-04-28T02:44:34.120Z,2.90
2019-04-28T02:47:01.142Z,2.20
2019-04-28T02:49:31.443Z,2.80
2019-04-28T02:52:20.206Z,2.63
2019-04-28T02:54:50.477Z,2.83
2019-04-28T02:57:20.634Z,2.60
2019-04-28T02:59:50.941Z,3.17
2019-04-28T03:02:20.864Z,2.43
2019-04-28T03:04:50.657Z,2.60
2019-04-28T03:07:21.803Z,2.70
2019-04-28T03:09:51.995Z,2.70
2019-04-28T03:12:21.568Z,2.80
2019-04-28T03:14:50.734Z,3.10
2019-04-28T03:17:20.836Z,2.87
2019-04-28T03:19:51.704Z,2.40
2019-04-28T03:22:20.552Z,3.63
2019-04-28T03:24:51.158Z,3.00
2019-04-28T03:27:31.017Z,2.80
2019-04-28T03:30:01.308Z,2.93
2019-04-28T03:32:43.948Z,3.50
2019-04-28T03:35:03.757Z,2.83
2019-04-28T03:37:32.605Z,2.90
2019-04-28T03:40:01.237Z,3.40
2019-04-28T03:42:31.425Z,3.53
2019-04-28T03:45:01.862Z,3.67
2019-04-28T03:47:31.164Z,3.90
2019-04-28T03:50:00.294Z,4.77
2019-04-28T03:52:31.583Z,4.93
2019-04-28T03:55:00.569Z,5.40
2019-04-28T03:57:31.339Z,5.50
2019-04-28T04:00:01.550Z,4.90
2019-04-28T04:02:31.155Z,4.60
2019-04-28T04:05:03.395Z,5.53
2019-04-28T04:07:31.164Z,5.90
2019-04-28T04:10:04.234Z,5.67
2019-04-28T04:12:51.064Z,5.80
2019-04-28T04:15:41.299Z,5.70
2019-04-28T04:18:11.565Z,6.00
2019-04-28T04:20:40.982Z,5.50
2019-04-28T04:23:11.353Z,5.47
2019-04-28T04:25:41.703Z,5.80
2019-04-28T04:28:10.732Z,6.23
2019-04-28T04:30:40.975Z,5.97
2019-04-28T04:33:11.042Z,5.47
2019-04-28T04:35:41.144Z,5.93
2019-04-28T04:38:10.531Z,5.53
2019-04-28T04:40:41.354Z,5.67
2019-04-28T04:43:11.165Z,6.50
2019-04-28T04:45:40.473Z,6.10
2019-04-28T04:48:11.374Z,5.80
2019-04-28T04:50:41.211Z,7.13
2019-04-28T04:53:10.976Z,6.53
2019-04-28T04:55:40.798Z,6.00
2019-04-28T04:58:10.755Z,6.80
2019-04-28T05:00:51.035Z,7.27
2019-04-28T05:03:36.357Z,6.37
2019-04-28T05:06:06.519Z,6.97
2019-04-28T05:08:35.012Z,6.17
2019-04-28T05:11:03.471Z,6.33
2019-04-28T05:13:32.034Z,5.77
2019-04-28T05:16:00.568Z,7.13
2019-04-28T05:18:29.754Z,5.63
2019-04-28T05:20:59.468Z,6.97
2019-04-28T05:23:40.004Z,6.37
2019-04-28T05:26:11.287Z,6.03
2019-04-28T05:28:43.894Z,6.00
2019-04-28T05:31:13.550Z,5.93
2019-04-28T05:33:39.585Z,7.13
2019-04-28T05:36:11.796Z,6.83
2019-04-28T05:38:42.084Z,7.13
2019-04-28T05:41:10.753Z,6.57
2019-04-28T05:43:40.460Z,6.70
2019-04-28T05:46:10.645Z,7.43
2019-04-28T05:48:46.676Z,6.70
2019-04-28T05:51:33.040Z,7.17
2019-04-28T05:54:09.879Z,6.97
2019-04-28T05:56:40.081Z,7.53
2019-04-28T05:59:15.964Z,7.17
2019-04-28T06:01:57.938Z,8.13
2019-04-28T06:04:27.759Z,7.37
2019-04-28T06:06:59.662Z,7.13
2019-04-28T06:09:29.924Z,8.43
2019-04-28T06:12:00.001Z,8.73
2019-04-28T06:14:30.063Z,8.20
2019-04-28T06:17:00.365Z,8.03
2019-04-28T06:19:30.197Z,7.77
2019-04-28T06:21:58.744Z,7.57
2019-04-28T06:24:27.233Z,7.60
2019-04-28T06:26:55.771Z,7.93
2019-04-28T06:29:24.333Z,7.07
2019-04-28T06:31:52.857Z,6.80
2019-04-28T06:34:21.419Z,7.17
2019-04-28T06:36:49.956Z,7.73
2019-04-28T06:39:18.445Z,6.97
2019-04-28T06:41:46.915Z,6.80
2019-04-28T06:44:15.480Z,5.93
2019-04-28T06:46:44.021Z,6.67
2019-04-28T06:49:12.511Z,7.87
2019-04-28T06:51:41.043Z,7.97
2019-04-28T06:54:11.579Z,7.43
2019-04-28T06:56:40.113Z,8.00
2019-04-28T06:59:08.601Z,8.77
2019-04-28T07:01:37.149Z,8.20
2019-04-28T07:04:05.709Z,6.97
2019-04-28T07:06:34.243Z,7.73
2019-04-28T07:09:03.800Z,7.60
2019-04-28T07:11:32.264Z,8.43
2019-04-28T07:14:00.818Z,9.10
2019-04-28T07:16:29.285Z,9.37
2019-04-28T07:18:57.778Z,8.43
2019-04-28T07:21:34.033Z,9.30
2019-04-28T07:24:02.672Z,6.87
2019-04-28T07:26:31.954Z,8.33
2019-04-28T07:29:00.481Z,7.20
2019-04-28T07:31:29.123Z,8.40
2019-04-28T07:33:57.616Z,9.00
2019-04-28T07:36:26.151Z,7.67
2019-04-28T07:38:54.640Z,8.00
2019-04-28T07:41:23.344Z,6.50
2019-04-28T07:43:51.810Z,7.70
2019-04-28T07:46:20.376Z,6.97
2019-04-28T07:48:48.921Z,5.90
2019-04-28T07:51:17.846Z,4.70
2019-04-28T07:53:48.014Z,4.60
2019-04-28T07:56:16.511Z,5.10
2019-04-28T07:58:45.108Z,4.50
2019-04-28T08:01:13.836Z,4.90
2019-04-28T08:03:49.335Z,7.07
2019-04-28T08:06:12.509Z,6.50
2019-04-28T08:08:41.040Z,7.10
2019-04-28T08:11:09.597Z,6.87
2019-04-28T08:13:38.132Z,6.57
2019-04-28T08:16:06.623Z,5.90
2019-04-28T08:18:35.164Z,5.27
2019-04-28T08:21:03.640Z,4.60
2019-04-28T08:23:32.108Z,5.03
2019-04-28T08:26:00.723Z,4.87
2019-04-28T08:28:29.193Z,4.87
2019-04-28T08:30:57.677Z,5.27
2019-04-28T08:33:33.150Z,5.77
2019-04-28T08:36:00.761Z,6.60
2019-04-28T08:38:29.227Z,7.07
2019-04-28T08:40:57.796Z,7.60
2019-04-28T08:43:26.324Z,8.20
2019-04-28T08:45:54.952Z,7.40
2019-04-28T08:48:23.788Z,6.10
2019-04-28T08:50:52.343Z,5.57
2019-04-28T08:53:20.878Z,5.60
2019-04-28T08:55:49.444Z,5.27
2019-04-28T08:58:17.981Z,4.40
2019-04-28T09:00:46.604Z,3.70
2019-04-28T09:03:15.138Z,4.03
2019-04-28T09:05:43.698Z,3.30
2019-04-28T09:08:12.224Z,3.50
2019-04-28T09:10:40.788Z,3.83
2019-04-28T09:13:09.321Z,3.53
2019-04-28T09:15:37.873Z,3.67
2019-04-28T09:18:06.344Z,4.07
2019-04-28T09:20:34.841Z,4.30
2019-04-28T09:23:03.378Z,4.27
2019-04-28T09:25:31.944Z,4.00
2019-04-28T09:28:00.477Z,3.67
2019-04-28T09:30:29.149Z,3.40
2019-04-28T09:32:57.672Z,3.37
2019-04-28T09:35:26.196Z,3.37
2019-04-28T09:37:54.677Z,3.50
2019-04-28T09:40:23.169Z,3.30
2019-04-28T09:42:56.273Z,3.33
2019-04-28T09:45:37.981Z,2.73
2019-04-28T09:48:06.458Z,2.70
2019-04-28T09:50:35.008Z,2.20
2019-04-28T09:53:03.494Z,3.30
2019-04-28T09:55:32.029Z,2.47
2019-04-28T09:58:00.522Z,2.70
2019-04-28T10:00:29.058Z,2.30
2019-04-28T10:02:57.700Z,2.50
2019-04-28T10:05:26.242Z,2.17
2019-04-28T10:07:54.804Z,2.20
2019-04-28T10:10:23.412Z,2.17
2019-04-28T10:12:51.918Z,2.10
2019-04-28T10:15:20.444Z,2.80
2019-04-28T10:17:49.012Z,2.33
2019-04-28T10:20:17.809Z,2.83
2019-04-28T10:22:46.688Z,2.90
2019-04-28T10:25:15.303Z,3.63
2019-04-28T10:27:43.801Z,3.83
2019-04-28T10:30:12.894Z,3.83
2019-04-28T10:32:41.446Z,4.10
2019-04-28T10:35:10.253Z,3.07
2019-04-28T10:37:38.822Z,4.23
2019-04-28T10:40:09.740Z,4.30
2019-04-28T10:42:38.309Z,4.07
2019-04-28T10:45:08.855Z,3.73
2019-04-28T10:47:37.426Z,3.40
2019-04-28T10:50:06.304Z,2.80
2019-04-28T10:52:34.894Z,2.20
2019-04-28T10:55:04.041Z,1.83
2019-04-28T10:57:32.651Z,2.30
2019-04-28T11:00:01.115Z,2.33
2019-04-28T11:02:29.675Z,2.13
2019-04-28T11:05:14.637Z,2.20
2019-04-28T11:07:43.985Z,2.50
2019-04-28T11:10:14.256Z,2.30
2019-04-28T11:12:42.819Z,2.17
2019-04-28T11:15:12.991Z,2.10
2019-04-28T11:17:41.557Z,2.00
2019-04-28T11:20:10.336Z,2.07
2019-04-28T11:22:39.396Z,1.60
2019-04-28T11:25:08.082Z,1.47
2019-04-28T11:27:36.618Z,0.83
2019-04-28T11:30:06.924Z,1.07
2019-04-28T11:32:35.450Z,0.90
2019-04-28T11:35:21.310Z,0.93
2019-04-28T11:37:45.116Z,1.03
2019-04-28T11:40:13.701Z,0.87
2019-04-28T11:42:43.880Z,0.90
2019-04-28T11:45:12.762Z,1.10
2019-04-28T11:47:41.233Z,0.60
2019-04-28T11:50:10.033Z,0.83
2019-04-28T11:52:38.567Z,0.80
2019-04-28T11:55:07.869Z,0.70
2019-04-28T11:57:36.336Z,0.60
2019-04-28T12:00:08.177Z,0.70
2019-04-28T12:02:36.652Z,0.97
2019-04-28T12:05:06.283Z,0.80
2019-04-28T12:07:34.811Z,1.20
2019-04-28T12:10:16.772Z,0.70
2019-04-28T12:13:01.834Z,1.00
2019-04-28T12:15:37.741Z,1.10
2019-04-28T12:18:13.589Z,1.00
2019-04-28T12:20:42.153Z,1.00
2019-04-28T12:23:10.617Z,1.20
2019-04-28T12:25:39.185Z,1.47
2019-04-28T12:28:07.650Z,1.00
2019-04-28T12:30:36.284Z,3.73
2019-04-28T12:33:04.962Z,1.20
2019-04-28T12:35:33.529Z,1.00
2019-04-28T12:38:02.061Z,1.00
2019-04-28T12:40:30.552Z,1.10
2019-04-28T12:42:59.050Z,1.37
2019-04-28T12:45:34.933Z,1.10
2019-04-28T12:47:57.780Z,0.93
2019-04-28T12:50:28.543Z,1.17
2019-04-28T12:52:57.085Z,0.90
2019-04-28T12:55:25.635Z,1.10
2019-04-28T12:57:54.104Z,1.00
2019-04-28T13:00:36.073Z,0.90
2019-04-28T13:03:14.713Z,0.77
2019-04-28T13:06:00.820Z,1.10
2019-04-28T13:08:18.396Z,1.23
2019-04-28T13:10:47.036Z,1.60
2019-04-28T13:13:15.585Z,1.70
2019-04-28T13:15:44.073Z,1.70
2019-04-28T13:18:12.541Z,1.73
2019-04-28T13:20:41.032Z,1.73
2019-04-28T13:23:09.501Z,1.87
2019-04-28T13:25:38.013Z,1.80
2019-04-28T13:28:06.618Z,1.83
2019-04-28T13:30:35.281Z,1.70
2019-04-28T13:33:03.817Z,1.50
2019-04-28T13:35:32.767Z,1.50
2019-04-28T13:38:01.297Z,1.33
2019-04-28T13:40:34.226Z,1.20
2019-04-28T13:43:02.706Z,1.00
2019-04-28T13:45:31.242Z,1.10
2019-04-28T13:47:59.805Z,1.00
2019-04-28T13:50:31.585Z,1.20
2019-04-28T13:53:00.121Z,1.00
2019-04-28T13:55:30.352Z,1.37
2019-04-28T13:58:00.551Z,1.10
2019-04-28T14:00:46.564Z,1.07
2019-04-28T14:03:25.491Z,0.80
2019-04-28T14:05:58.587Z,0.80
2019-04-28T14:08:27.052Z,0.73
2019-04-28T14:10:55.676Z,1.50
2019-04-28T14:13:24.158Z,0.80
2019-04-28T14:15:52.676Z,0.70
2019-04-28T14:18:21.249Z,1.20
2019-04-28T14:20:49.781Z,0.90
2019-04-28T14:23:18.394Z,1.10
2019-04-28T14:25:46.887Z,0.80
2019-04-28T14:28:15.488Z,0.90
2019-04-28T14:30:43.988Z,0.80
2019-04-28T14:33:12.481Z,0.70
2019-04-28T14:35:41.015Z,0.70
2019-04-28T14:38:09.622Z,0.50
2019-04-28T14:40:38.108Z,0.60
2019-04-28T14:43:06.600Z,0.90
2019-04-28T14:45:35.060Z,0.60
2019-04-28T14:48:03.634Z,0.50
2019-04-28T14:50:32.233Z,0.47
2019-04-28T14:53:00.714Z,0.40
2019-04-28T14:55:29.177Z,0.60
2019-04-28T14:57:57.744Z,0.67
2019-04-28T15:00:27.984Z,1.13
2019-04-28T15:02:58.107Z,1.20
2019-04-28T15:05:28.350Z,1.27
2019-04-28T15:07:58.472Z,1.30
2019-04-28T15:10:28.717Z,1.03
2019-04-28T15:12:57.557Z,1.03
2019-04-28T15:15:26.092Z,1.20
2019-04-28T15:17:54.628Z,0.90
2019-04-28T15:20:23.203Z,1.20
2019-04-28T15:22:51.763Z,1.13
2019-04-28T15:25:20.319Z,1.20
2019-04-28T15:27:48.861Z,1.10
2019-04-28T15:30:17.465Z,1.00
2019-04-28T15:32:46.029Z,0.93
2019-04-28T15:35:18.475Z,1.20
2019-04-28T15:37:49.406Z,0.80
2019-04-28T15:40:19.249Z,0.90
2019-04-28T15:42:47.777Z,1.10
2019-04-28T15:45:16.477Z,0.90
2019-04-28T15:47:45.084Z,1.03
2019-04-28T15:50:13.887Z,1.10
2019-04-28T15:52:42.521Z,0.70
2019-04-28T15:55:12.787Z,0.80
2019-04-28T15:57:41.285Z,0.70
2019-04-28T16:00:14.505Z,0.70
2019-04-28T16:02:43.000Z,0.90
2019-04-28T16:05:11.600Z,0.80
2019-04-28T16:07:40.173Z,0.60
2019-04-28T16:10:09.043Z,0.90
2019-04-28T16:12:37.595Z,0.70
2019-04-28T16:15:07.505Z,0.70
2019-04-28T16:17:36.188Z,1.00
2019-04-28T16:20:07.756Z,0.70
2019-04-28T16:22:36.245Z,0.80
2019-04-28T16:25:06.552Z,0.90
2019-04-28T16:27:35.104Z,0.80
2019-04-28T16:30:04.805Z,1.10
2019-04-28T16:32:33.294Z,0.80
2019-04-28T16:35:01.791Z,1.03
2019-04-28T16:37:38.667Z,0.80
2019-04-28T16:40:00.763Z,1.00
2019-04-28T16:42:29.384Z,0.90
2019-04-28T16:44:58.053Z,0.80
2019-04-28T16:47:26.594Z,0.80
2019-04-28T16:49:56.099Z,1.00
2019-04-28T16:52:24.629Z,0.90
2019-04-28T16:54:54.878Z,0.63
2019-04-28T16:57:31.057Z,0.80
2019-04-28T17:00:03.884Z,0.77
2019-04-28T17:02:34.011Z,0.87
2019-04-28T17:05:02.548Z,0.90
2019-04-28T17:07:31.157Z,0.90
2019-04-28T17:09:59.716Z,0.70
2019-04-28T17:12:28.178Z,0.87
2019-04-28T17:14:56.663Z,0.60
2019-04-28T17:17:25.272Z,1.00
2019-04-28T17:19:53.883Z,1.07
2019-04-28T17:22:22.532Z,0.70
2019-04-28T17:24:51.186Z,0.83
2019-04-28T17:27:19.736Z,0.70
2019-04-28T17:29:51.061Z,0.87
2019-04-28T17:32:18.797Z,0.80
2019-04-28T17:34:47.296Z,1.10
2019-04-28T17:37:16.161Z,1.53
2019-04-28T17:39:44.828Z,1.10
2019-04-28T17:42:14.172Z,0.90
2019-04-28T17:44:42.735Z,2.53
2019-04-28T17:47:11.813Z,1.27
2019-04-28T17:49:40.464Z,1.30
2019-04-28T17:52:09.844Z,1.70
2019-04-28T17:54:38.401Z,2.37
2019-04-28T17:57:07.011Z,3.97
2019-04-28T17:59:35.831Z,1.77
2019-04-28T18:02:06.286Z,1.20
2019-04-28T18:04:48.070Z,1.30
2019-04-28T18:07:30.478Z,1.13
2019-04-28T18:09:59.060Z,2.20
2019-04-28T18:12:27.581Z,1.10
2019-04-28T18:14:57.715Z,3.13
2019-04-28T18:17:43.712Z,1.63
2019-04-28T18:20:12.568Z,1.40
2019-04-28T18:22:41.204Z,1.20
2019-04-28T18:25:10.327Z,2.50
2019-04-28T18:27:38.911Z,5.53
2019-04-28T18:30:07.745Z,11.03
2019-04-28T18:32:41.611Z,2.47
2019-04-28T18:35:20.988Z,1.60
2019-04-28T18:38:04.314Z,1.50
2019-04-28T18:40:40.379Z,1.30
2019-04-28T18:43:13.388Z,1.63
2019-04-28T18:45:42.009Z,1.60
2019-04-28T18:48:10.549Z,1.10
2019-04-28T18:50:39.099Z,1.13
2019-04-28T18:53:07.736Z,1.00
2019-04-28T18:55:36.324Z,1.30
2019-04-28T18:58:05.069Z,0.90
2019-04-28T19:00:35.195Z,1.10
2019-04-28T19:03:04.002Z,1.23
2019-04-28T19:05:34.256Z,1.10
2019-04-28T19:08:04.433Z,1.20
2019-04-28T19:10:40.117Z,1.20
2019-04-28T19:13:15.133Z,1.07
2019-04-28T19:16:01.239Z,1.20
2019-04-28T19:18:31.423Z,1.10
2019-04-28T19:21:00.017Z,0.90
2019-04-28T19:23:28.548Z,1.13
2019-04-28T19:25:57.036Z,1.17
2019-04-28T19:28:25.914Z,1.20
2019-04-28T19:30:54.462Z,1.20
2019-04-28T19:33:22.924Z,1.10
2019-04-28T19:35:51.468Z,1.20
2019-04-28T19:38:19.944Z,1.20
2019-04-28T19:40:48.432Z,1.10
2019-04-28T19:43:17.638Z,1.37
2019-04-28T19:45:47.503Z,1.00
2019-04-28T19:48:16.033Z,1.13
2019-04-28T19:50:44.518Z,1.23
2019-04-28T19:53:13.069Z,1.10
2019-04-28T19:55:55.263Z,1.17
2019-04-28T19:58:25.371Z,1.20
2019-04-28T20:00:58.583Z,1.17
2019-04-28T20:03:27.120Z,1.10
2019-04-28T20:05:55.579Z,1.40
2019-04-28T20:08:24.161Z,1.10
2019-04-28T20:10:52.692Z,1.37
2019-04-28T20:13:21.176Z,1.10
2019-04-28T20:15:49.717Z,1.13
2019-04-28T20:18:18.274Z,1.10
2019-04-28T20:20:46.808Z,1.00
2019-04-28T20:23:15.360Z,1.13
2019-04-28T20:25:43.816Z,1.30
2019-04-28T20:28:12.292Z,1.23
2019-04-28T20:30:40.813Z,1.20
2019-04-28T20:33:09.429Z,1.40
2019-04-28T20:35:48.607Z,1.13
2019-04-28T20:38:21.636Z,1.70
2019-04-28T20:40:51.937Z,1.20
2019-04-28T20:43:22.748Z,1.20
2019-04-28T20:45:51.265Z,1.20
2019-04-28T20:48:19.752Z,1.30
2019-04-28T20:50:48.288Z,1.10
2019-04-28T20:53:19.244Z,1.17
2019-04-28T20:55:47.025Z,1.17
2019-04-28T20:58:15.531Z,1.43
2019-04-28T21:00:44.177Z,1.20
2019-04-28T21:03:12.659Z,1.97
2019-04-28T21:05:41.192Z,1.10
2019-04-28T21:08:09.693Z,1.37
2019-04-28T21:10:38.684Z,1.60
2019-04-28T21:13:07.259Z,1.90
2019-04-28T21:15:35.786Z,1.40
2019-04-28T21:18:04.404Z,1.40
2019-04-28T21:20:33.077Z,1.00
2019-04-28T21:23:01.776Z,1.37
2019-04-28T21:25:30.326Z,1.33
2019-04-28T21:27:58.913Z,1.53
2019-04-28T21:30:27.449Z,1.40
2019-04-28T21:32:56.074Z,1.30
2019-04-28T21:35:24.693Z,1.40
2019-04-28T21:37:53.263Z,1.27
2019-04-28T21:40:22.105Z,1.77
2019-04-28T21:43:08.452Z,1.20
2019-04-28T21:45:54.764Z,1.20
2019-04-28T21:48:42.724Z,1.10
2019-04-28T21:51:12.112Z,1.50
2019-04-28T21:53:40.992Z,1.60
2019-04-28T21:56:09.523Z,1.53
2019-04-28T21:58:38.015Z,1.40
2019-04-28T22:01:07.685Z,1.13
2019-04-28T22:03:36.261Z,1.40
2019-04-28T22:06:04.932Z,1.20
2019-04-28T22:08:33.437Z,1.83
2019-04-28T22:11:01.978Z,1.20
2019-04-28T22:13:30.531Z,1.53
2019-04-28T22:15:59.074Z,1.60
2019-04-28T22:18:27.697Z,1.57
2019-04-28T22:20:56.229Z,1.37
2019-04-28T22:23:44.347Z,1.37
2019-04-28T22:26:14.581Z,1.50
2019-04-28T22:28:43.141Z,1.53
2019-04-28T22:31:11.595Z,1.53
2019-04-28T22:33:40.085Z,1.57
2019-04-28T22:36:08.629Z,1.37
2019-04-28T22:38:37.157Z,1.23
2019-04-28T22:41:05.707Z,1.87
2019-04-28T22:43:34.240Z,1.50
2019-04-28T22:46:02.749Z,1.30
2019-04-28T22:48:31.311Z,1.60
2019-04-28T22:50:59.890Z,2.30
2019-04-28T22:53:30.060Z,1.97
2019-04-28T22:56:03.085Z,1.80
2019-04-28T22:58:33.293Z,1.73
2019-04-28T23:01:09.365Z,1.40
2019-04-28T23:03:39.585Z,1.60
2019-04-28T23:06:10.454Z,1.50
2019-04-28T23:08:38.333Z,1.97
2019-04-28T23:11:08.867Z,1.67
2019-04-28T23:13:37.377Z,1.87
2019-04-28T23:16:05.947Z,2.47
2019-04-28T23:18:34.630Z,1.90
2019-04-28T23:21:07.274Z,1.87
2019-04-28T23:23:35.893Z,1.50
2019-04-28T23:26:04.589Z,2.13
2019-04-28T23:28:33.057Z,1.57
2019-04-28T23:31:01.618Z,1.73
2019-04-28T23:33:30.157Z,1.43
2019-04-28T23:35:58.806Z,1.70
2019-04-28T23:38:27.270Z,2.33
2019-04-28T23:40:57.472Z,2.17
2019-04-28T23:43:25.936Z,2.10
2019-04-28T23:45:54.424Z,2.03
2019-04-28T23:48:22.977Z,1.93
2019-04-28T23:50:55.792Z,2.20
2019-04-28T23:53:42.181Z,1.80
2019-04-28T23:56:10.681Z,2.17
2019-04-28T23:58:39.227Z,2.07
